createdAt,value
2023-04-11T00:00:34.656Z,23.64
2023-04-11T00:01:34.718Z,23.64
2023-04-11T00:02:34.713Z,23.65
2023-04-11T00:03:34.954Z,23.63
2023-04-11T00:04:34.890Z,23.60
2023-04-11T00:05:34.731Z,23.61
2023-04-11T00:06:34.788Z,23.60
2023-04-11T00:07:34.815Z,23.60
2023-04-11T00:08:34.862Z,23.57
2023-04-11T00:09:34.899Z,23.57
2023-04-11T00:10:34.952Z,23.57
2023-04-11T00:11:34.978Z,23.57
2023-04-11T00:12:35.032Z,23.56
2023-04-11T00:13:35.058Z,23.56
2023-04-11T00:14:35.100Z,23.56
2023-04-11T00:15:35.136Z,23.57
2023-04-11T00:16:35.219Z,23.55
2023-04-11T00:17:35.248Z,23.56
2023-04-11T00:18:35.275Z,23.54
2023-04-11T00:19:35.302Z,23.56
2023-04-11T00:20:35.341Z,23.57
2023-04-11T00:21:35.392Z,23.58
2023-04-11T00:22:35.432Z,23.56
2023-04-11T00:23:35.469Z,23.58
2023-04-11T00:24:35.544Z,23.53
2023-04-11T00:25:35.545Z,23.55
2023-04-11T00:26:35.602Z,23.56
2023-04-11T00:27:35.617Z,23.55
2023-04-11T00:28:35.667Z,23.54
2023-04-11T00:29:35.720Z,23.55
2023-04-11T00:30:35.763Z,23.53
2023-04-11T00:31:35.841Z,23.52
2023-04-11T00:32:35.922Z,23.52
2023-04-11T00:33:35.891Z,23.53
2023-04-11T00:34:35.939Z,23.52
2023-04-11T00:35:35.987Z,23.52
2023-04-11T00:36:36.106Z,23.52
2023-04-11T00:37:36.213Z,23.51
2023-04-11T00:38:36.114Z,23.52
2023-04-11T00:39:36.135Z,23.52
2023-04-11T00:40:36.187Z,23.52
2023-04-11T00:41:36.227Z,23.52
2023-04-11T00:42:36.267Z,23.53
2023-04-11T00:43:36.310Z,23.54
2023-04-11T00:44:36.441Z,23.53
2023-04-11T00:45:36.406Z,23.54
2023-04-11T00:46:36.446Z,23.53
2023-04-11T00:47:36.522Z,23.54
2023-04-11T00:48:36.524Z,23.51
2023-04-11T00:49:36.538Z,23.53
2023-04-11T00:50:36.601Z,23.51
2023-04-11T00:51:36.629Z,23.53
2023-04-11T00:52:36.673Z,23.53
2023-04-11T00:53:36.713Z,23.52
2023-04-11T00:54:36.756Z,23.52
2023-04-11T00:55:36.797Z,23.52
2023-04-11T00:56:36.830Z,23.49
2023-04-11T00:57:36.872Z,23.52
2023-04-11T00:58:36.913Z,23.52
2023-04-11T00:59:36.948Z,23.52
2023-04-11T01:00:36.996Z,23.52
2023-04-11T01:01:37.087Z,23.52
2023-04-11T01:02:37.201Z,23.52
2023-04-11T01:03:37.191Z,23.53
2023-04-11T01:04:37.197Z,23.53
2023-04-11T01:05:37.239Z,23.52
2023-04-11T01:06:37.277Z,23.53
2023-04-11T01:07:37.338Z,23.52
2023-04-11T01:08:37.362Z,23.52
2023-04-11T01:09:37.411Z,23.54
2023-04-11T01:10:37.451Z,23.54
2023-04-11T01:11:37.504Z,23.53
2023-04-11T01:12:37.552Z,23.54
2023-04-11T01:13:37.586Z,23.55
2023-04-11T01:14:37.629Z,23.54
2023-04-11T01:15:37.704Z,23.53
2023-04-11T01:16:37.757Z,23.54
2023-04-11T01:17:37.810Z,23.53
2023-04-11T01:18:37.799Z,23.52
2023-04-11T01:19:37.854Z,23.51
2023-04-11T01:20:37.913Z,23.55
2023-04-11T01:21:37.967Z,23.55
2023-04-11T01:22:38.026Z,23.53
2023-04-11T01:23:38.069Z,23.53
2023-04-11T01:24:38.132Z,23.54
2023-04-11T01:25:38.157Z,23.54
2023-04-11T01:26:38.210Z,23.53
2023-04-11T01:27:38.263Z,23.54
2023-04-11T01:28:38.308Z,23.53
2023-04-11T01:29:38.365Z,23.53
2023-04-11T01:30:38.438Z,23.56
2023-04-11T01:31:38.456Z,23.55
2023-04-11T01:32:38.524Z,23.53
2023-04-11T01:33:38.545Z,23.54
2023-04-11T01:34:38.600Z,23.54
2023-04-11T01:35:38.670Z,23.55
2023-04-11T01:36:38.696Z,23.53
2023-04-11T01:37:38.733Z,23.53
2023-04-11T01:38:38.793Z,23.54
2023-04-11T01:39:38.837Z,23.54
2023-04-11T01:40:38.898Z,23.55
2023-04-11T01:41:38.959Z,23.55
2023-04-11T01:42:39.001Z,23.55
2023-04-11T01:43:39.043Z,23.55
2023-04-11T01:44:39.106Z,23.57
2023-04-11T01:45:39.151Z,23.54
2023-04-11T01:46:39.216Z,23.56
2023-04-11T01:47:39.378Z,23.56
2023-04-11T01:48:39.382Z,23.58
2023-04-11T01:49:39.363Z,23.58
2023-04-11T01:50:39.426Z,23.57
2023-04-11T01:51:39.468Z,23.56
2023-04-11T01:52:39.548Z,23.59
2023-04-11T01:53:39.570Z,23.61
2023-04-11T01:54:39.643Z,23.59
2023-04-11T01:55:39.669Z,23.60
2023-04-11T01:56:39.720Z,23.59
2023-04-11T01:57:39.774Z,23.58
2023-04-11T01:58:39.834Z,23.58
2023-04-11T01:59:39.863Z,23.58
2023-04-11T02:00:39.918Z,23.56
2023-04-11T02:01:40.036Z,23.56
2023-04-11T02:02:40.167Z,23.59
2023-04-11T02:03:40.219Z,23.60
2023-04-11T02:04:40.110Z,23.57
2023-04-11T02:05:40.167Z,23.58
2023-04-11T02:06:40.240Z,23.58
2023-04-11T02:07:40.283Z,23.58
2023-04-11T02:08:40.340Z,23.58
2023-04-11T02:09:40.396Z,23.60
2023-04-11T02:10:40.449Z,23.60
2023-04-11T02:11:40.600Z,23.60
2023-04-11T02:12:40.565Z,23.60
2023-04-11T02:13:40.602Z,23.60
2023-04-11T02:14:40.662Z,23.61
2023-04-11T02:15:40.734Z,23.61
2023-04-11T02:16:40.763Z,23.62
2023-04-11T02:17:40.847Z,23.61
2023-04-11T02:18:40.858Z,23.61
2023-04-11T02:19:40.908Z,23.62
2023-04-11T02:20:40.948Z,23.63
2023-04-11T02:21:40.988Z,23.61
2023-04-11T02:22:41.048Z,23.64
2023-04-11T02:23:41.038Z,23.65
2023-04-11T02:24:41.023Z,23.63
2023-04-11T02:25:40.992Z,23.63
2023-04-11T02:26:40.978Z,23.64
2023-04-11T02:27:40.983Z,23.62
2023-04-11T02:28:40.968Z,23.60
2023-04-11T02:29:40.943Z,23.64
2023-04-11T02:30:41.012Z,23.62
2023-04-11T02:31:41.118Z,23.63
2023-04-11T02:32:41.123Z,23.64
2023-04-11T02:33:41.061Z,23.63
2023-04-11T02:34:41.101Z,23.62
2023-04-11T02:35:41.154Z,23.59
2023-04-11T02:36:41.205Z,23.60
2023-04-11T02:37:41.259Z,23.62
2023-04-11T02:38:41.274Z,23.60
2023-04-11T02:39:41.331Z,23.64
2023-04-11T02:40:41.356Z,23.61
2023-04-11T02:41:41.416Z,23.64
2023-04-11T02:42:41.453Z,23.63
2023-04-11T02:43:41.516Z,23.63
2023-04-11T02:44:41.562Z,23.62
2023-04-11T02:45:41.597Z,23.62
2023-04-11T02:46:41.639Z,23.64
2023-04-11T02:47:41.752Z,23.62
2023-04-11T02:48:41.738Z,23.61
2023-04-11T02:49:41.771Z,23.62
2023-04-11T02:50:41.808Z,23.62
2023-04-11T02:51:41.858Z,23.63
2023-04-11T02:52:41.941Z,23.63
2023-04-11T02:53:42.002Z,23.60
2023-04-11T02:54:42.024Z,23.60
2023-04-11T02:55:42.067Z,23.60
2023-04-11T02:56:42.127Z,23.59
2023-04-11T02:57:42.180Z,23.50
2023-04-11T02:58:42.293Z,23.07
2023-04-11T02:59:42.203Z,22.82
2023-04-11T03:00:42.195Z,22.60
2023-04-11T03:01:42.263Z,22.51
2023-04-11T03:02:42.213Z,22.32
2023-04-11T03:03:42.191Z,22.23
2023-04-11T03:04:42.138Z,22.10
2023-04-11T03:05:42.133Z,21.97
2023-04-11T03:06:42.130Z,21.87
2023-04-11T03:07:42.100Z,21.78
2023-04-11T03:08:42.083Z,21.67
2023-04-11T03:09:42.081Z,21.56
2023-04-11T03:10:42.054Z,21.52
2023-04-11T03:11:42.045Z,21.45
2023-04-11T03:12:42.039Z,21.33
2023-04-11T03:13:42.078Z,21.29
2023-04-11T03:14:42.118Z,21.23
2023-04-11T03:15:42.260Z,21.16
2023-04-11T03:16:42.227Z,21.14
2023-04-11T03:17:42.368Z,21.08
2023-04-11T03:18:42.370Z,21.04
2023-04-11T03:19:42.399Z,21.01
2023-04-11T03:20:42.397Z,20.90
2023-04-11T03:21:42.414Z,20.87
2023-04-11T03:22:42.422Z,20.86
2023-04-11T03:23:42.416Z,20.79
2023-04-11T03:24:42.426Z,20.74
2023-04-11T03:25:42.450Z,20.70
2023-04-11T03:26:42.422Z,20.69
2023-04-11T03:27:42.436Z,20.63
2023-04-11T03:28:42.423Z,20.63
2023-04-11T03:29:42.419Z,20.59
2023-04-11T03:30:42.426Z,20.55
2023-04-11T03:31:42.473Z,20.58
2023-04-11T03:32:42.461Z,20.50
2023-04-11T03:33:42.465Z,20.53
2023-04-11T03:34:42.465Z,20.50
2023-04-11T03:35:42.514Z,20.50
2023-04-11T03:36:42.438Z,20.53
2023-04-11T03:37:42.446Z,20.49
2023-04-11T03:38:42.440Z,20.46
2023-04-11T03:39:42.458Z,20.44
2023-04-11T03:40:42.449Z,20.46
2023-04-11T03:41:42.448Z,20.41
2023-04-11T03:42:42.425Z,20.46
2023-04-11T03:43:42.430Z,20.44
2023-04-11T03:44:42.422Z,20.39
2023-04-11T03:45:42.414Z,20.38
2023-04-11T03:46:42.494Z,20.39
2023-04-11T03:47:42.475Z,20.38
2023-04-11T03:48:42.442Z,20.42
2023-04-11T03:49:42.423Z,20.32
2023-04-11T03:50:42.433Z,20.37
2023-04-11T03:51:42.432Z,20.39
2023-04-11T03:52:42.437Z,20.32
2023-04-11T03:53:42.468Z,20.36
2023-04-11T03:54:42.473Z,20.38
2023-04-11T03:55:42.485Z,20.34
2023-04-11T03:56:42.522Z,20.28
2023-04-11T03:57:42.507Z,20.30
2023-04-11T03:58:42.509Z,20.26
2023-04-11T03:59:42.530Z,20.28
2023-04-11T04:00:42.544Z,20.29
2023-04-11T04:01:42.598Z,20.24
2023-04-11T04:02:42.912Z,20.27
2023-04-11T04:03:42.938Z,20.29
2023-04-11T04:04:42.659Z,20.26
2023-04-11T04:05:42.634Z,20.26
2023-04-11T04:06:42.627Z,20.22
2023-04-11T04:07:42.650Z,20.18
2023-04-11T04:08:42.658Z,20.18
2023-04-11T04:09:42.689Z,20.20
2023-04-11T04:10:42.695Z,20.18
2023-04-11T04:11:42.731Z,20.20
2023-04-11T04:12:42.753Z,20.17
2023-04-11T04:13:42.776Z,20.15
2023-04-11T04:14:42.790Z,20.08
2023-04-11T04:15:42.813Z,20.12
2023-04-11T04:16:42.981Z,20.12
2023-04-11T04:17:42.939Z,20.08
2023-04-11T04:18:42.868Z,20.14
2023-04-11T04:19:42.851Z,20.07
2023-04-11T04:20:42.846Z,20.12
2023-04-11T04:21:42.849Z,20.08
2023-04-11T04:22:42.823Z,20.08
2023-04-11T04:23:42.827Z,20.07
2023-04-11T04:24:42.815Z,20.05
2023-04-11T04:25:42.822Z,20.08
2023-04-11T04:26:42.795Z,20.09
2023-04-11T04:27:42.793Z,20.08
2023-04-11T04:28:42.789Z,20.07
2023-04-11T04:29:42.779Z,20.11
2023-04-11T04:30:42.769Z,20.10
2023-04-11T04:31:42.800Z,20.12
2023-04-11T04:32:42.812Z,20.15
2023-04-11T04:33:42.865Z,20.11
2023-04-11T04:34:42.751Z,20.09
2023-04-11T04:35:42.737Z,20.13
2023-04-11T04:36:42.714Z,20.10
2023-04-11T04:37:42.706Z,20.14
2023-04-11T04:38:42.709Z,20.15
2023-04-11T04:39:42.754Z,20.15
2023-04-11T04:40:42.750Z,20.15
2023-04-11T04:41:42.784Z,20.19
2023-04-11T04:42:42.788Z,20.19
2023-04-11T04:43:42.819Z,20.22
2023-04-11T04:44:42.834Z,20.21
2023-04-11T04:45:42.896Z,20.22
2023-04-11T04:46:42.885Z,20.27
2023-04-11T04:47:42.973Z,20.22
2023-04-11T04:48:42.934Z,20.25
2023-04-11T04:49:42.961Z,20.28
2023-04-11T04:50:43.004Z,20.29
2023-04-11T04:51:43.026Z,20.33
2023-04-11T04:52:43.041Z,20.35
2023-04-11T04:53:43.078Z,20.38
2023-04-11T04:54:43.115Z,20.35
2023-04-11T04:55:43.147Z,20.35
2023-04-11T04:56:43.159Z,20.40
2023-04-11T04:57:43.182Z,20.37
2023-04-11T04:58:43.206Z,20.41
2023-04-11T04:59:43.238Z,20.38
2023-04-11T05:00:43.254Z,20.42
2023-04-11T05:01:43.434Z,20.47
2023-04-11T05:02:43.424Z,20.43
2023-04-11T05:03:43.421Z,20.45
2023-04-11T05:04:43.355Z,20.46
2023-04-11T05:05:43.363Z,20.45
2023-04-11T05:06:43.349Z,20.46
2023-04-11T05:07:43.334Z,20.48
2023-04-11T05:08:43.344Z,20.48
2023-04-11T05:09:43.328Z,20.48
2023-04-11T05:10:43.300Z,20.49
2023-04-11T05:11:43.294Z,20.47
2023-04-11T05:12:43.292Z,20.44
2023-04-11T05:13:43.287Z,20.47
2023-04-11T05:14:43.268Z,20.48
2023-04-11T05:15:43.265Z,20.52
2023-04-11T05:16:43.296Z,20.45
2023-04-11T05:17:43.275Z,20.50
2023-04-11T05:18:43.279Z,20.50
2023-04-11T05:19:43.263Z,20.54
2023-04-11T05:20:43.265Z,20.53
2023-04-11T05:21:43.272Z,20.51
2023-04-11T05:22:43.247Z,20.51
2023-04-11T05:23:43.281Z,20.56
2023-04-11T05:24:43.264Z,20.55
2023-04-11T05:25:43.235Z,20.55
2023-04-11T05:26:43.229Z,20.56
2023-04-11T05:27:43.222Z,20.55
2023-04-11T05:28:43.226Z,20.57
2023-04-11T05:29:43.237Z,20.56
2023-04-11T05:30:43.285Z,20.69
2023-04-11T05:31:43.239Z,20.78
2023-04-11T05:32:43.244Z,22.04
2023-04-11T05:33:43.206Z,22.64
2023-04-11T05:34:43.214Z,22.79
2023-04-11T05:35:43.198Z,22.97
2023-04-11T05:36:43.168Z,23.77
2023-04-11T05:37:43.263Z,23.73
2023-04-11T05:38:43.150Z,23.98
2023-04-11T05:39:43.145Z,23.87
2023-04-11T05:40:43.128Z,24.04
2023-04-11T05:41:43.110Z,24.53
2023-04-11T05:42:43.121Z,24.78
2023-04-11T05:43:43.176Z,24.79
2023-04-11T05:44:43.209Z,24.75
2023-04-11T05:45:43.278Z,24.83
2023-04-11T05:46:43.287Z,25.65
2023-04-11T05:47:43.358Z,25.33
2023-04-11T05:48:43.331Z,25.31
2023-04-11T05:49:43.372Z,26.14
2023-04-11T05:50:43.382Z,26.16
2023-04-11T05:51:43.414Z,22.56
2023-04-11T05:52:43.447Z,23.79
2023-04-11T05:53:43.514Z,24.07
2023-04-11T05:54:43.520Z,23.66
2023-04-11T05:55:43.603Z,23.83
2023-04-11T05:56:43.614Z,24.60
2023-04-11T05:57:43.640Z,25.15
2023-04-11T05:58:43.687Z,24.93
2023-04-11T05:59:43.733Z,25.60
2023-04-11T06:00:43.764Z,25.57
2023-04-11T06:01:43.860Z,25.19
2023-04-11T06:02:44.043Z,25.41
2023-04-11T06:03:44.069Z,24.95
2023-04-11T06:04:44.023Z,24.87
2023-04-11T06:05:43.942Z,24.64
2023-04-11T06:06:43.951Z,24.66
2023-04-11T06:07:43.955Z,24.17
2023-04-11T06:08:43.966Z,24.27
2023-04-11T06:09:43.955Z,24.10
2023-04-11T06:10:43.957Z,24.14
2023-04-11T06:11:43.957Z,24.22
2023-04-11T06:12:43.981Z,24.14
2023-04-11T06:13:43.963Z,23.97
2023-04-11T06:14:43.984Z,23.77
2023-04-11T06:15:43.981Z,23.81
2023-04-11T06:16:43.972Z,23.50
2023-04-11T06:17:44.039Z,23.90
2023-04-11T06:18:43.973Z,23.62
2023-04-11T06:19:43.972Z,23.54
2023-04-11T06:20:43.993Z,23.34
2023-04-11T06:21:44.082Z,23.24
2023-04-11T06:22:44.152Z,23.29
2023-04-11T06:23:44.195Z,23.68
2023-04-11T06:24:44.209Z,23.47
2023-04-11T06:25:44.273Z,23.56
2023-04-11T06:26:44.308Z,23.45
2023-04-11T06:27:44.378Z,23.46
2023-04-11T06:28:44.498Z,23.55
2023-04-11T06:29:44.514Z,23.73
2023-04-11T06:30:44.592Z,23.61
2023-04-11T06:31:44.706Z,23.47
2023-04-11T06:32:44.714Z,23.61
2023-04-11T06:33:44.749Z,23.72
2023-04-11T06:34:44.805Z,23.52
2023-04-11T06:35:44.906Z,23.44
2023-04-11T06:36:44.907Z,23.30
2023-04-11T06:37:44.949Z,23.43
2023-04-11T06:38:45.016Z,23.70
2023-04-11T06:39:45.100Z,23.39
2023-04-11T06:40:45.163Z,23.60
2023-04-11T06:41:45.231Z,24.29
2023-04-11T06:42:45.265Z,23.62
2023-04-11T06:43:45.302Z,23.47
2023-04-11T06:44:45.381Z,24.03
2023-04-11T06:45:45.364Z,24.50
2023-04-11T06:46:45.416Z,24.26
2023-04-11T06:47:45.466Z,24.50
2023-04-11T06:48:45.394Z,24.29
2023-04-11T06:49:45.517Z,24.50
2023-04-11T06:50:45.485Z,24.79
2023-04-11T06:51:45.522Z,24.59
2023-04-11T06:52:45.567Z,24.63
2023-04-11T06:53:45.551Z,25.15
2023-04-11T06:54:45.566Z,25.12
2023-04-11T06:55:45.555Z,25.12
2023-04-11T06:56:45.632Z,25.15
2023-04-11T06:57:45.660Z,25.16
2023-04-11T06:58:45.725Z,25.31
2023-04-11T06:59:45.872Z,25.14
2023-04-11T07:00:45.766Z,24.85
2023-04-11T07:01:45.835Z,24.99
2023-04-11T07:02:45.974Z,24.43
2023-04-11T07:03:45.989Z,25.27
2023-04-11T07:04:46.009Z,25.32
2023-04-11T07:05:45.854Z,25.26
2023-04-11T07:06:45.837Z,25.39
2023-04-11T07:07:45.839Z,25.46
2023-04-11T07:08:45.817Z,25.61
2023-04-11T07:09:45.812Z,25.48
2023-04-11T07:10:45.861Z,25.42
2023-04-11T07:11:45.864Z,25.23
2023-04-11T07:12:45.902Z,24.65
2023-04-11T07:13:45.868Z,23.67
2023-04-11T07:14:45.860Z,23.54
2023-04-11T07:15:45.911Z,23.11
2023-04-11T07:16:46.010Z,22.68
2023-04-11T07:17:45.861Z,23.08
2023-04-11T07:18:45.813Z,23.11
2023-04-11T07:19:45.808Z,23.29
2023-04-11T07:20:45.810Z,23.21
2023-04-11T07:21:45.801Z,23.00
2023-04-11T07:22:45.805Z,23.05
2023-04-11T07:23:45.785Z,22.88
2023-04-11T07:24:45.787Z,22.83
2023-04-11T07:25:45.782Z,23.04
2023-04-11T07:26:45.782Z,23.16
2023-04-11T07:27:45.781Z,22.98
2023-04-11T07:28:45.821Z,23.28
2023-04-11T07:29:45.855Z,23.16
2023-04-11T07:30:45.893Z,23.05
2023-04-11T07:31:46.014Z,23.06
2023-04-11T07:32:45.952Z,23.16
2023-04-11T07:33:46.003Z,23.25
2023-04-11T07:34:46.030Z,23.41
2023-04-11T07:35:46.122Z,22.82
2023-04-11T07:36:46.076Z,23.13
2023-04-11T07:37:46.069Z,23.54
2023-04-11T07:38:46.085Z,23.75
2023-04-11T07:39:46.103Z,23.39
2023-04-11T07:40:46.186Z,25.81
2023-04-11T07:41:46.212Z,25.38
2023-04-11T07:42:46.238Z,24.99
2023-04-11T07:43:46.248Z,24.87
2023-04-11T07:44:46.265Z,24.86
2023-04-11T07:45:46.294Z,24.98
2023-04-11T07:46:46.263Z,25.04
2023-04-11T07:47:46.724Z,25.24
2023-04-11T07:48:46.235Z,25.22
2023-04-11T07:49:46.296Z,25.28
2023-04-11T07:50:46.336Z,25.33
2023-04-11T07:51:46.385Z,25.32
2023-04-11T07:52:46.433Z,25.48
2023-04-11T07:53:46.468Z,25.43
2023-04-11T07:54:46.446Z,25.41
2023-04-11T07:55:46.465Z,25.41
2023-04-11T07:56:46.417Z,25.40
2023-04-11T07:57:46.377Z,25.47
2023-04-11T07:58:46.363Z,25.43
2023-04-11T07:59:46.397Z,25.44
2023-04-11T08:00:46.335Z,25.40
2023-04-11T08:01:46.458Z,25.34
2023-04-11T08:02:46.423Z,25.36
2023-04-11T08:03:46.371Z,25.33
2023-04-11T08:04:46.355Z,25.30
2023-04-11T08:05:46.253Z,25.31
2023-04-11T08:06:46.229Z,25.38
2023-04-11T08:07:46.219Z,25.33
2023-04-11T08:08:46.195Z,25.30
2023-04-11T08:09:46.183Z,25.28
2023-04-11T08:10:46.196Z,25.34
2023-04-11T08:11:46.157Z,25.33
2023-04-11T08:12:46.140Z,25.32
2023-04-11T08:13:46.138Z,25.37
2023-04-11T08:14:46.138Z,25.32
2023-04-11T08:15:46.105Z,25.30
2023-04-11T08:16:46.099Z,25.33
2023-04-11T08:17:46.091Z,25.29
2023-04-11T08:18:46.082Z,25.27
2023-04-11T08:19:46.038Z,25.24
2023-04-11T08:20:46.037Z,25.23
2023-04-11T08:21:46.012Z,25.24
2023-04-11T08:22:46.009Z,25.21
2023-04-11T08:23:46.049Z,25.20
2023-04-11T08:24:45.967Z,25.25
2023-04-11T08:25:45.949Z,25.22
2023-04-11T08:26:45.933Z,25.25
2023-04-11T08:27:45.919Z,25.28
2023-04-11T08:28:45.898Z,25.51
2023-04-11T08:29:45.914Z,25.33
2023-04-11T08:30:45.887Z,24.92
2023-04-11T08:31:45.847Z,24.87
2023-04-11T08:32:45.959Z,24.81
2023-04-11T08:33:45.811Z,24.70
2023-04-11T08:34:45.802Z,24.55
2023-04-11T08:35:45.839Z,24.24
2023-04-11T08:36:45.779Z,24.05
2023-04-11T08:37:45.753Z,23.71
2023-04-11T08:38:45.733Z,23.17
2023-04-11T08:39:45.735Z,23.10
2023-04-11T08:40:45.719Z,23.02
2023-04-11T08:41:45.722Z,22.86
2023-04-11T08:42:45.710Z,22.77
2023-04-11T08:43:45.691Z,22.73
2023-04-11T08:44:45.678Z,22.73
2023-04-11T08:45:45.701Z,22.66
2023-04-11T08:46:45.644Z,22.63
2023-04-11T08:47:46.074Z,22.56
2023-04-11T08:48:45.637Z,22.57
2023-04-11T08:49:45.598Z,22.39
2023-04-11T08:50:45.582Z,22.84
2023-04-11T08:51:45.583Z,23.55
2023-04-11T08:52:45.552Z,23.44
2023-04-11T08:53:45.552Z,23.12
2023-04-11T08:54:45.534Z,22.81
2023-04-11T08:55:45.508Z,22.84
2023-04-11T08:56:45.507Z,22.82
2023-04-11T08:57:45.496Z,22.64
2023-04-11T08:58:45.507Z,22.55
2023-04-11T08:59:45.511Z,22.49
2023-04-11T09:00:45.493Z,22.52
2023-04-11T09:01:45.490Z,22.56
2023-04-11T09:02:45.477Z,22.52
2023-04-11T09:03:45.492Z,22.55
2023-04-11T09:04:45.433Z,22.57
2023-04-11T09:05:45.381Z,22.59
2023-04-11T09:06:45.382Z,22.50
2023-04-11T09:07:45.369Z,22.47
2023-04-11T09:08:45.385Z,22.50
2023-04-11T09:09:45.356Z,22.53
2023-04-11T09:10:45.421Z,22.56
2023-04-11T09:11:45.339Z,22.60
2023-04-11T09:12:45.325Z,22.56
2023-04-11T09:13:45.308Z,22.55
2023-04-11T09:14:45.341Z,22.51
2023-04-11T09:15:45.336Z,22.43
2023-04-11T09:16:45.293Z,22.48
2023-04-11T09:17:45.349Z,22.47
2023-04-11T09:18:45.271Z,22.45
2023-04-11T09:19:48.296Z,22.46
2023-04-11T09:20:45.240Z,22.44
2023-04-11T09:21:45.235Z,22.43
2023-04-11T09:22:45.224Z,22.44
2023-04-11T09:23:45.215Z,22.35
2023-04-11T09:24:45.194Z,22.30
2023-04-11T09:25:45.181Z,22.24
2023-04-11T09:26:45.250Z,22.28
2023-04-11T09:27:45.175Z,22.18
2023-04-11T09:28:45.170Z,22.09
2023-04-11T09:29:45.141Z,22.07
2023-04-11T09:30:45.123Z,22.08
2023-04-11T09:31:45.128Z,22.01
2023-04-11T09:32:45.112Z,22.11
2023-04-11T09:33:45.069Z,22.08
2023-04-11T09:34:45.057Z,21.93
2023-04-11T09:35:45.089Z,21.72
2023-04-11T09:36:45.059Z,21.76
2023-04-11T09:37:45.026Z,21.83
2023-04-11T09:38:45.008Z,21.89
2023-04-11T09:39:44.995Z,21.84
2023-04-11T09:40:44.989Z,21.83
2023-04-11T09:41:44.986Z,21.90
2023-04-11T09:42:45.016Z,21.92
2023-04-11T09:43:44.991Z,21.95
2023-04-11T09:44:44.959Z,23.34
2023-04-11T09:45:54.134Z,22.90
2023-04-11T09:46:45.992Z,22.90
2023-04-11T09:47:45.086Z,22.98
2023-04-11T09:49:44.931Z,23.26
2023-04-11T09:50:44.949Z,23.35
2023-04-11T09:51:44.890Z,23.43
2023-04-11T09:52:44.885Z,23.61
2023-04-11T09:53:44.886Z,23.71
2023-04-11T09:54:44.853Z,23.84
2023-04-11T09:55:44.838Z,23.94
2023-04-11T09:56:44.881Z,24.22
2023-04-11T09:57:44.815Z,24.34
2023-04-11T09:58:44.795Z,24.42
2023-04-11T09:59:44.776Z,24.49
2023-04-11T10:00:44.759Z,24.57
2023-04-11T10:01:44.816Z,24.66
2023-04-11T10:02:44.914Z,24.79
2023-04-11T10:03:44.760Z,24.87
2023-04-11T10:04:44.840Z,24.95
2023-04-11T10:05:44.815Z,25.04
2023-04-11T10:06:44.855Z,25.09
2023-04-11T10:07:44.875Z,25.18
2023-04-11T10:08:44.858Z,25.35
2023-04-11T10:09:44.928Z,25.35
2023-04-11T10:10:44.833Z,25.38
2023-04-11T10:11:44.847Z,25.59
2023-04-11T10:12:44.799Z,25.58
2023-04-11T10:13:44.851Z,25.68
2023-04-11T10:14:44.764Z,25.68
2023-04-11T10:15:44.741Z,25.75
2023-04-11T10:16:44.902Z,25.94
2023-04-11T10:17:44.764Z,25.93
2023-04-11T10:18:44.727Z,25.98
2023-04-11T10:19:44.694Z,25.90
2023-04-11T10:20:44.678Z,25.93
2023-04-11T10:21:44.645Z,25.93
2023-04-11T10:22:44.649Z,25.95
2023-04-11T10:23:44.610Z,25.97
2023-04-11T10:24:44.627Z,25.99
2023-04-11T10:25:44.649Z,25.95
2023-04-11T10:26:44.663Z,25.95
2023-04-11T10:27:44.686Z,25.99
2023-04-11T10:28:44.689Z,25.97
2023-04-11T10:29:44.694Z,25.94
2023-04-11T10:30:44.697Z,26.10
2023-04-11T10:31:44.737Z,26.00
2023-04-11T10:32:44.804Z,25.98
2023-04-11T10:33:44.732Z,25.94
2023-04-11T10:34:44.733Z,25.94
2023-04-11T10:35:44.851Z,26.29
2023-04-11T10:36:44.765Z,26.12
2023-04-11T10:37:44.773Z,26.00
2023-04-11T10:38:44.782Z,26.07
2023-04-11T10:39:44.745Z,25.94
2023-04-11T10:40:44.736Z,26.57
2023-04-11T10:41:44.740Z,25.14
2023-04-11T10:42:44.711Z,24.69
2023-04-11T10:43:44.695Z,25.28
2023-04-11T10:44:44.670Z,24.87
2023-04-11T10:45:44.665Z,24.93
2023-04-11T10:46:44.650Z,24.75
2023-04-11T10:47:44.691Z,24.48
2023-04-11T10:48:44.604Z,23.85
2023-04-11T10:49:45.465Z,23.73
2023-04-11T10:50:44.588Z,23.67
2023-04-11T10:51:44.562Z,23.75
2023-04-11T10:52:44.540Z,23.99
2023-04-11T10:53:44.530Z,23.94
2023-04-11T10:54:44.513Z,23.83
2023-04-11T10:55:44.511Z,23.83
2023-04-11T10:56:44.476Z,22.89
2023-04-11T10:57:44.477Z,23.32
2023-04-11T10:58:44.433Z,23.31
2023-04-11T10:59:44.474Z,23.16
2023-04-11T11:00:44.548Z,23.74
2023-04-11T11:02:44.804Z,23.10
2023-04-11T11:03:44.656Z,23.33
2023-04-11T11:04:44.618Z,23.50
2023-04-11T11:05:44.532Z,23.97
2023-04-11T11:06:50.949Z,23.27
2023-04-11T11:07:45.545Z,23.96
2023-04-11T11:08:44.461Z,23.69
2023-04-11T11:09:44.461Z,23.37
2023-04-11T11:10:44.427Z,23.84
2023-04-11T11:11:44.419Z,23.73
2023-04-11T11:12:44.413Z,23.89
2023-04-11T11:13:44.402Z,23.49
2023-04-11T11:14:44.406Z,23.65
2023-04-11T11:15:44.368Z,24.11
2023-04-11T11:16:45.140Z,23.44
2023-04-11T11:17:44.371Z,23.59
2023-04-11T11:18:44.339Z,23.31
2023-04-11T11:19:44.374Z,23.65
2023-04-11T11:20:44.316Z,23.40
2023-04-11T11:21:44.322Z,24.64
2023-04-11T11:22:44.314Z,24.14
2023-04-11T11:23:44.304Z,24.95
2023-04-11T11:24:44.292Z,24.79
2023-04-11T11:25:44.297Z,24.68
2023-04-11T11:26:44.387Z,24.71
2023-04-11T11:27:44.423Z,24.80
2023-04-11T11:28:44.435Z,24.66
2023-04-11T11:29:44.484Z,24.64
2023-04-11T11:30:44.491Z,24.51
2023-04-11T11:31:44.582Z,24.43
2023-04-11T11:32:44.577Z,24.36
2023-04-11T11:33:44.548Z,24.32
2023-04-11T11:34:44.549Z,24.27
2023-04-11T11:35:44.603Z,24.22
2023-04-11T11:36:44.629Z,24.19
2023-04-11T11:37:44.588Z,24.26
2023-04-11T11:38:44.586Z,24.21
2023-04-11T11:39:44.589Z,24.05
2023-04-11T11:40:44.588Z,24.01
2023-04-11T11:41:44.610Z,23.96
2023-04-11T11:42:44.626Z,23.93
2023-04-11T11:43:44.601Z,23.89
2023-04-11T11:44:44.613Z,23.78
2023-04-11T11:45:44.617Z,23.76
2023-04-11T11:46:44.614Z,23.78
2023-04-11T11:47:44.651Z,23.72
2023-04-11T11:48:44.624Z,23.65
2023-04-11T11:49:44.679Z,23.65
2023-04-11T11:50:44.625Z,23.75
2023-04-11T11:51:44.621Z,24.08
2023-04-11T11:52:44.646Z,24.19
2023-04-11T11:53:44.617Z,24.07
2023-04-11T11:54:44.620Z,24.11
2023-04-11T11:55:44.632Z,24.35
2023-04-11T11:56:44.608Z,24.16
2023-04-11T11:57:44.589Z,24.62
2023-04-11T11:58:44.579Z,30.54
2023-04-11T11:59:44.545Z,27.78
2023-04-11T12:00:44.541Z,28.40
2023-04-11T12:01:44.531Z,28.11
2023-04-11T12:02:44.827Z,28.30
2023-04-11T12:03:44.700Z,28.71
2023-04-11T12:04:44.660Z,28.38
2023-04-11T12:05:44.447Z,28.40
2023-04-11T12:06:44.421Z,28.05
2023-04-11T12:07:44.390Z,27.93
2023-04-11T12:08:45.675Z,27.86
2023-04-11T12:09:44.363Z,27.72
2023-04-11T12:10:44.351Z,27.62
2023-04-11T12:11:44.330Z,27.50
2023-04-11T12:12:44.290Z,27.40
2023-04-11T12:13:45.286Z,27.37
2023-04-11T12:14:44.257Z,27.28
2023-04-11T12:15:44.288Z,27.17
2023-04-11T12:16:44.218Z,27.09
2023-04-11T12:17:44.219Z,27.04
2023-04-11T12:18:44.215Z,26.94
2023-04-11T12:19:44.172Z,26.85
2023-04-11T12:20:44.134Z,26.78
2023-04-11T12:21:44.125Z,26.71
2023-04-11T12:22:44.182Z,26.70
2023-04-11T12:23:44.118Z,26.64
2023-04-11T12:24:44.184Z,26.52
2023-04-11T12:25:44.036Z,26.47
2023-04-11T12:26:57.547Z,26.39
2023-04-11T12:27:46.942Z,26.38
2023-04-11T12:28:44.041Z,26.33
2023-04-11T12:29:43.961Z,26.29
2023-04-11T12:30:43.977Z,26.22
2023-04-11T12:31:45.730Z,26.20
2023-04-11T12:32:44.073Z,26.22
2023-04-11T12:33:43.901Z,26.25
2023-04-11T12:34:43.953Z,26.17
2023-04-11T12:35:43.901Z,26.15
2023-04-11T12:36:43.828Z,26.11
2023-04-11T12:37:43.806Z,26.06
2023-04-11T12:38:43.792Z,26.02
2023-04-11T12:39:43.777Z,26.01
2023-04-11T12:40:43.740Z,25.95
2023-04-11T12:41:43.728Z,25.94
2023-04-11T12:43:43.699Z,25.90
2023-04-11T12:44:43.683Z,25.83
2023-04-11T12:45:43.669Z,25.81
2023-04-11T12:46:43.821Z,25.78
2023-04-11T12:47:43.654Z,25.75
2023-04-11T12:48:43.625Z,25.76
2023-04-11T12:49:43.602Z,25.69
2023-04-11T12:50:43.593Z,25.69
2023-04-11T12:51:43.571Z,25.65
2023-04-11T12:52:43.556Z,25.63
2023-04-11T12:53:43.550Z,25.58
2023-04-11T12:54:43.532Z,25.58
2023-04-11T12:55:43.545Z,25.54